Flight Track Log - Related Links

Times and Time Zones

All times are in EDT time to prevent confusion due to time zone crossing. See the EJA396 flight status page for this flight to view local times or setup timezone preferences in your user account.

Time Position Orientation Groundspeed Altitude Reporting Facility
EDT Latitude Longitude Course Direction KTS MPH feet Rate Location/Type
Thu 01:49:57 PM 42.3667 -70.9333 304° West 224 258 3,300  Level KA90
Thu 01:50:57 PM 42.3833 -70.8333 77° East 274 315 7,200 3,256 Climbing KA90
Thu 01:52:06 PM 42.4506 -70.7686 35° Northeast 306 352 10,300 2,977 Climbing Boston Center
Thu 01:53:06 PM 42.5219 -70.8089 337° Northwest 272 313 13,600 2,800 Climbing Boston Center
Thu 01:54:06 PM 42.5733 -70.9036 306° West 268 308 15,900 2,200 Climbing Boston Center
Thu 01:55:00 PM 42.7464 -71.1929 304° West  Level FlightAware Approximate
Thu 01:55:06 PM 42.6333 -71.0150 306° West 317 365 18,000  Level Boston Center
Thu 01:56:06 PM 42.6864 -71.1097 307° West 349 402 19,000 1,550 Climbing Boston Center
Thu 01:57:06 PM 42.7481 -71.2158 308° West 354 407 21,100 2,550 Climbing Boston Center
Thu 01:58:06 PM 42.7953 -71.3367 298° West 360 414 24,100 3,000 Climbing Boston Center
Thu 01:59:06 PM 42.8339 -71.4547 294° West 354 407 27,100 3,000 Climbing Boston Center
Thu 02:00:06 PM 42.8639 -71.5847 288° West 338 389 30,100 2,400 Climbing Boston Center
Thu 02:01:06 PM 42.8878 -71.7061 285° West 338 389 31,900 1,750 Climbing Boston Center
Thu 02:02:06 PM 42.8989 -71.8392 277° West 343 395 33,600 1,650 Climbing Boston Center
Thu 02:03:06 PM 42.9100 -71.9725 277° West 350 403 35,200 1,450 Climbing Boston Center
Thu 02:04:06 PM 42.9231 -72.1056 278° West 355 409 36,500 1,300 Climbing Boston Center
Thu 02:05:06 PM 42.9317 -72.2417 275° West 360 414 37,800 1,250 Climbing Boston Center
Thu 02:06:06 PM 42.9444 -72.3664 278° West 367 422 39,000 1,100 Climbing Boston Center
Thu 02:07:06 PM 42.9528 -72.4997 275° West 367 422 40,000 500 Climbing Boston Center
Thu 02:08:06 PM 42.9589 -72.6472 273° West 362 417 40,000  Level Boston Center
Thu 02:09:06 PM 42.9689 -72.7892 276° West 367 422 40,000  Level Boston Center
Thu 02:10:06 PM 42.9808 -72.9339 276° West 374 430 40,000  Level Boston Center
Thu 02:11:06 PM 42.9906 -73.0675 276° West 386 444 40,000  Level Boston Center
Thu 02:12:06 PM 43.0019 -73.2264 276° West 386 444 40,000  Level Boston Center
Thu 02:13:06 PM 43.0114 -73.3572 276° West 386 444 40,000  Level Boston Center
Thu 02:14:06 PM 43.0167 -73.4992 273° West 386 444 40,000  Level Boston Center
Thu 02:15:06 PM 43.0256 -73.6442 275° West 386 444 40,000  Level Boston Center
Thu 02:16:06 PM 43.0344 -73.7894 275° West 386 444 40,000  Level Boston Center
Thu 02:17:06 PM 43.0450 -73.9400 276° West 386 444 40,000  Level Boston Center
Thu 02:18:06 PM 43.0533 -74.0881 274° West 391 450 40,000  Level Boston Center
Thu 02:19:06 PM 43.0614 -74.2361 274° West 391 450 40,000  Level Boston Center
Thu 02:20:06 PM 43.0714 -74.3869 275° West 391 450 40,000  Level Boston Center
Thu 02:21:06 PM 43.0792 -74.5381 274° West 396 456 40,000  Level Boston Center
Thu 02:22:06 PM 43.0744 -74.6883 268° West 402 463 40,000  Level Boston Center
Thu 02:23:06 PM 43.0092 -74.8194 236° Southwest 395 455 40,000  Level Boston Center
Thu 02:24:06 PM 42.9314 -74.9442 230° Southwest 412 474 40,000  Level Boston Center
Thu 02:25:18 PM 42.8383 -75.0906 229° Southwest 425 489 40,000  Level Boston Center
Thu 02:26:18 PM 42.7606 -75.2117 229° Southwest 435 501 40,000  Level Boston Center
Thu 02:28:38 PM 42.5872 -75.4875 230° Southwest 425 489 40,000  Level New York Center
Thu 02:29:38 PM 42.5117 -75.6086 230° Southwest 425 489 40,000  Level New York Center
Thu 02:30:39 PM 42.4503 -75.7389 237° Southwest 425 489 40,000  Level New York Center
Thu 02:31:39 PM 42.4211 -75.8856 255° West 408 470 40,000  Level New York Center
Thu 02:32:37 PM 42.3919 -76.0292 255° West 408 470 40,000  Level New York Center
Thu 02:33:38 PM 42.3625 -76.1728 255° West 401 461 40,000  Level New York Center
Thu 02:34:37 PM 42.3331 -76.3161 255° West 401 461 40,000  Level New York Center
Thu 02:35:37 PM 42.3014 -76.4592 253° West 401 461 40,000  Level New York Center
Thu 02:36:58 PM 42.2622 -76.6633 256° West 414 476 40,000  Level Cleveland Center
Thu 02:37:58 PM 42.2314 -76.8028 253° West 414 476 40,000  Level Cleveland Center
Thu 02:38:58 PM 42.2006 -76.9475 254° West 409 471 40,000  Level Cleveland Center
Thu 02:39:58 PM 42.1678 -77.1008 254° West 398 458 40,000  Level Cleveland Center
Thu 02:40:58 PM 42.1367 -77.2425 254° West 398 458 40,000  Level Cleveland Center
Thu 02:41:58 PM 42.1075 -77.3867 255° West 398 458 40,000  Level Cleveland Center
Thu 02:42:58 PM 42.0756 -77.5256 253° West 398 458 40,000  Level Cleveland Center
Thu 02:43:58 PM 42.0356 -77.6672 249° West 398 458 40,000  Level Cleveland Center
Thu 02:44:58 PM 41.9994 -77.8031 250° West 404 465 40,000  Level Cleveland Center
Thu 02:45:58 PM 41.9631 -77.9414 251° West 404 465 40,000  Level Cleveland Center
Thu 02:46:58 PM 41.9225 -78.0825 249° West 404 465 40,000  Level Cleveland Center
Thu 02:47:58 PM 41.8853 -78.2069 248° West 404 465 40,000  Level Cleveland Center
Thu 02:48:58 PM 41.8467 -78.3475 250° West 404 465 40,000 -550 Level Cleveland Center
Thu 02:49:58 PM 41.8053 -78.4856 248° West 409 471 38,900 -1,250 Descending Cleveland Center
Thu 02:50:58 PM 41.7661 -78.6317 250° West 409 471 37,500 -1,733 Descending Cleveland Center
Thu 02:52:00 PM 41.7175 -78.7556 242° Southwest  Level FlightAware Approximate
Thu 02:52:58 PM 41.6792 -78.9317 242° Southwest 415 478 33,700  Level Cleveland Center
Thu 02:53:58 PM 41.6353 -79.0772 248° West 415 478 31,700 -2,000 Descending Cleveland Center
Thu 02:54:58 PM 41.5914 -79.2256 248° West 415 478 29,700 -1,850 Descending Cleveland Center
Thu 02:55:58 PM 41.5492 -79.3761 250° West 427 491 28,000 -1,190 Descending Cleveland Center
Thu 02:56:59 PM 41.5047 -79.5183 247° West 427 491 27,300 -1,300 Descending Cleveland Center
Thu 02:57:58 PM 41.4644 -79.6606 249° West 427 491 25,400 -1,664 Descending Cleveland Center
Thu 02:58:58 PM 41.4236 -79.7967 248° West 415 478 24,000 -1,250 Descending Cleveland Center
Thu 02:59:58 PM 41.3828 -79.9328 248° West 410 472 22,900 -1,450 Descending Cleveland Center
Thu 03:00:58 PM 41.3458 -80.0494 247° West 399 459 21,100 -1,900 Descending Cleveland Center
Thu 03:01:58 PM 41.3089 -80.1769 249° West 387 445 19,100 -1,950 Descending Cleveland Center
Thu 03:02:58 PM 41.2697 -80.3042 248° West 381 438 17,200 -2,350 Descending Cleveland Center
Thu 03:03:58 PM 41.2283 -80.4422 248° West 376 433 14,400 -2,350 Descending Cleveland Center
Thu 03:04:58 PM 41.1928 -80.5500 246° West 365 420 12,500 -1,200 Descending Cleveland Center
Thu 03:05:58 PM 41.1594 -80.6658 249° West 350 403 12,000 -900 Descending Cleveland Center
Thu 03:06:58 PM 41.1239 -80.7733 246° West 342 394 10,700 -1,488 Descending Cleveland Center
Thu 03:07:59 PM 41.0944 -80.8697 248° West 308 354 9,000 -850 Descending Cleveland Center
Thu 03:08:58 PM 41.0692 -80.9578 249° West 287 330 9,000 -50 Level Cleveland Center
Thu 03:09:58 PM 41.0356 -81.0647 247° West 274 315 8,900 -1,300 Descending Cleveland Center
Thu 03:10:58 PM 40.9997 -81.1500 241° Southwest 279 321 6,400 -2,200 Descending Cleveland Center
Thu 03:11:58 PM 40.9556 -81.2319 235° Southwest 272 313 4,500 -1,600 Descending Cleveland Center
Thu 03:12:58 PM 40.9175 -81.3058 236° Southwest 270 311 3,200 -850 Descending Cleveland Center
Thu 03:13:58 PM 40.8836 -81.3686 234° Southwest 238 274 2,800 -550 Descending Cleveland Center
Thu 03:14:58 PM 40.8769 -81.4233 261° West 176 203 2,100 -650 Descending Cleveland Center
Thu 03:15:58 PM 40.9019 -81.4431 329° Northwest 120 138 1,500 1,450 Descending Cleveland Center
Thu 03:16:58 PM 40.9378 -81.3803 53° Northeast 126 145 5,000 3,500 Climbing Cleveland Center
Thu 03:18:00 PM 40.9000 -81.4333 237° Southwest  Level FlightAware Approximate
Thu 03:25:00 PM 40.9151 -81.4436 237° Southwest  Level Estimated

Login

Don't have an account? Register now (free) for customized features, flight alerts, and more!